createdAt,value
2023-01-19T00:00:16.805Z,1003.548560
2023-01-19T00:05:16.833Z,1003.611878
2023-01-19T00:10:16.683Z,1003.637783
2023-01-19T00:15:16.913Z,1003.652164
2023-01-19T00:20:16.715Z,1003.723217
2023-01-19T00:25:16.791Z,1003.745457
2023-01-19T00:30:16.798Z,1003.781897
2023-01-19T00:35:16.934Z,1003.817855
2023-01-19T00:40:16.840Z,1003.799833
2023-01-19T00:45:16.764Z,1003.852867
2023-01-19T00:50:16.840Z,1003.927685
2023-01-19T00:55:16.692Z,1003.976621
2023-01-19T01:00:16.640Z,1003.962692
2023-01-19T01:05:16.861Z,1003.963832
2023-01-19T01:10:16.686Z,1003.992629
2023-01-19T01:15:16.919Z,1003.940449
2023-01-19T01:20:16.733Z,1004.005418
2023-01-19T01:25:16.743Z,1004.098043
2023-01-19T01:30:16.798Z,1004.165206
2023-01-19T01:35:16.947Z,1004.135072
2023-01-19T01:40:16.747Z,1004.111081
2023-01-19T01:45:16.977Z,1004.187077
2023-01-19T01:50:16.795Z,1004.214422
2023-01-19T01:55:16.657Z,1004.270019
2023-01-19T02:00:16.903Z,1004.300275
2023-01-19T02:05:16.657Z,1004.312172
2023-01-19T02:10:16.895Z,1004.296191
2023-01-19T02:15:16.933Z,1004.329752
2023-01-19T02:20:16.772Z,1004.409091
2023-01-19T02:25:16.900Z,1004.390264
2023-01-19T02:30:16.929Z,1004.418811
2023-01-19T02:35:16.687Z,1004.448598
2023-01-19T02:40:16.795Z,1004.506179
2023-01-19T02:45:17.067Z,1004.517807
2023-01-19T02:50:16.645Z,1004.520596
2023-01-19T02:55:16.742Z,1004.509300
2023-01-19T03:00:16.796Z,1004.536658
2023-01-19T03:05:16.790Z,1004.593955
2023-01-19T03:10:16.606Z,1004.578395
2023-01-19T03:15:16.909Z,1004.539968
2023-01-19T03:20:16.686Z,1004.540717
2023-01-19T03:25:16.772Z,1004.589478
2023-01-19T03:30:16.704Z,1004.595248
2023-01-19T03:35:16.655Z,1004.596584
2023-01-19T03:40:16.758Z,1004.609461
2023-01-19T03:45:16.647Z,1004.587639
2023-01-19T03:50:17.037Z,1004.623719
2023-01-19T03:55:16.678Z,1004.691950
2023-01-19T04:00:16.687Z,1004.705329
2023-01-19T04:05:16.632Z,1004.678864
2023-01-19T04:10:16.877Z,1004.647829
2023-01-19T04:15:16.818Z,1004.714156
2023-01-19T04:20:16.707Z,1004.801603
2023-01-19T04:25:17.162Z,1004.774543
2023-01-19T04:30:16.783Z,1004.671961
2023-01-19T04:35:16.665Z,1004.642822
2023-01-19T04:40:16.795Z,1004.627711
2023-01-19T04:45:16.566Z,1004.611845
2023-01-19T04:50:16.650Z,1004.624277
2023-01-19T04:55:16.837Z,1004.690649
2023-01-19T05:00:17.086Z,1004.721837
2023-01-19T05:05:16.837Z,1004.706284
2023-01-19T05:10:16.608Z,1004.685641
2023-01-19T05:15:16.781Z,1004.717090
2023-01-19T05:20:16.631Z,1004.794124
2023-01-19T05:25:16.763Z,1004.806521
2023-01-19T05:30:16.622Z,1004.793321
2023-01-19T05:35:18.292Z,1004.828480
2023-01-19T05:40:16.863Z,1004.876622
2023-01-19T05:45:17.186Z,1004.832516
2023-01-19T05:50:16.763Z,1004.798426
2023-01-19T05:55:16.608Z,1004.754020
2023-01-19T06:00:16.567Z,1004.745859
2023-01-19T06:05:16.701Z,1004.671207
2023-01-19T06:10:16.577Z,1004.656713
2023-01-19T06:15:16.766Z,1004.654668
2023-01-19T06:20:16.543Z,1004.669439
2023-01-19T06:25:16.797Z,1004.742301
2023-01-19T06:30:16.872Z,1004.769487
2023-01-19T06:35:16.839Z,1004.795438
2023-01-19T06:40:16.577Z,1004.825506
2023-01-19T06:45:16.765Z,1004.847921
2023-01-19T06:50:16.967Z,1004.881609
2023-01-19T06:55:16.762Z,1004.955713
2023-01-19T07:00:16.566Z,1004.998309
2023-01-19T07:05:16.464Z,1005.120390
2023-01-19T07:10:16.572Z,1005.185892
2023-01-19T07:15:16.820Z,1005.178039
2023-01-19T07:20:16.545Z,1005.250771
2023-01-19T07:25:16.502Z,1005.280520
2023-01-19T07:30:16.475Z,1005.264571
2023-01-19T07:35:16.734Z,1005.318823
2023-01-19T07:40:16.520Z,1005.379155
2023-01-19T07:45:16.443Z,1005.463263
2023-01-19T07:50:16.753Z,1005.494304
2023-01-19T07:55:16.584Z,1005.586291
2023-01-19T08:00:16.554Z,1005.587986
2023-01-19T08:05:16.827Z,1005.596283
2023-01-19T08:10:16.569Z,1005.608774
2023-01-19T08:15:16.815Z,1005.660585
2023-01-19T08:20:16.665Z,1005.653658
2023-01-19T08:25:16.487Z,1005.662256
2023-01-19T08:30:16.742Z,1005.579746
2023-01-19T08:35:16.523Z,1005.561116
2023-01-19T08:40:16.624Z,1005.695232
2023-01-19T08:45:16.691Z,1005.640283
2023-01-19T08:50:16.778Z,1005.711733
2023-01-19T08:55:16.544Z,1005.786369
2023-01-19T09:00:16.969Z,1005.786087
2023-01-19T09:05:16.498Z,1005.794282
2023-01-19T09:10:16.992Z,1005.849157
2023-01-19T09:15:17.310Z,1005.844376
2023-01-19T09:20:16.592Z,1005.882593
2023-01-19T09:25:16.535Z,1005.956072
2023-01-19T09:30:16.677Z,1005.978048
2023-01-19T09:35:16.598Z,1005.953683
2023-01-19T09:40:16.551Z,1005.805372
2023-01-19T09:45:16.623Z,1005.739918
2023-01-19T09:50:16.417Z,1005.600326
2023-01-19T09:55:16.571Z,1005.508460
2023-01-19T10:00:16.509Z,1005.411212
2023-01-19T10:05:16.541Z,1005.336270
2023-01-19T10:10:16.613Z,1005.249587
2023-01-19T10:15:16.661Z,1005.138476
2023-01-19T10:20:16.553Z,1005.126311
2023-01-19T10:25:16.778Z,1005.146777
2023-01-19T10:30:16.642Z,1005.093621
2023-01-19T10:35:16.563Z,1005.041557
2023-01-19T10:40:16.491Z,1005.081170
2023-01-19T10:45:16.537Z,1005.064301
2023-01-19T10:50:16.618Z,1005.102247
2023-01-19T10:55:16.653Z,1005.093901
2023-01-19T11:00:16.592Z,1005.093116
2023-01-19T11:05:16.637Z,1005.152343
2023-01-19T11:10:16.514Z,1005.162225
2023-01-19T11:15:16.592Z,1005.077699
2023-01-19T11:20:16.558Z,1005.032638
2023-01-19T11:25:16.528Z,1004.967045
2023-01-19T11:30:16.435Z,1004.925208
2023-01-19T11:35:16.676Z,1004.974547
2023-01-19T11:40:17.087Z,1004.921566
2023-01-19T11:45:16.571Z,1004.864250
2023-01-19T11:50:16.807Z,1004.866589
2023-01-19T11:55:16.880Z,1004.777572
2023-01-19T12:00:16.852Z,1004.716297
2023-01-19T12:05:16.564Z,1004.780818
2023-01-19T12:10:16.488Z,1004.740801
2023-01-19T12:15:16.692Z,1004.818095
2023-01-19T12:20:16.472Z,1004.906738
2023-01-19T12:25:16.481Z,1004.922757
2023-01-19T12:30:16.502Z,1004.918423
2023-01-19T12:35:16.516Z,1004.969264
2023-01-19T12:40:16.544Z,1004.991450
2023-01-19T12:45:16.400Z,1005.033605
2023-01-19T12:50:16.512Z,1005.051809
2023-01-19T12:55:16.884Z,1005.110011
2023-01-19T13:00:16.389Z,1005.170494
2023-01-19T13:05:16.504Z,1005.191095
2023-01-19T13:10:16.455Z,1005.108570
2023-01-19T13:15:16.681Z,1005.096867
2023-01-19T13:20:16.500Z,1005.103541
2023-01-19T13:25:16.402Z,1005.173798
2023-01-19T13:30:16.519Z,1005.214158
2023-01-19T13:35:16.471Z,1005.252566
2023-01-19T13:40:16.421Z,1005.255645
2023-01-19T13:45:16.739Z,1005.245481
2023-01-19T13:50:16.383Z,1005.247234
2023-01-19T13:55:16.506Z,1005.309606
2023-01-19T14:00:16.518Z,1005.302971
2023-01-19T14:05:16.445Z,1005.337789
2023-01-19T14:10:16.843Z,1005.361624
2023-01-19T14:15:16.720Z,1005.327073
2023-01-19T14:20:16.557Z,1005.380987
2023-01-19T14:25:16.603Z,1005.436045
2023-01-19T14:30:16.556Z,1005.454508
2023-01-19T14:35:16.550Z,1005.486440
2023-01-19T14:40:16.459Z,1005.477262
2023-01-19T14:45:16.600Z,1005.531185
2023-01-19T14:50:16.331Z,1005.595362
2023-01-19T14:55:16.563Z,1005.642039
2023-01-19T15:00:17.435Z,1005.682748
2023-01-19T15:05:16.787Z,1005.683055
2023-01-19T15:10:16.434Z,1005.726483
2023-01-19T15:15:16.622Z,1005.736958
2023-01-19T15:20:16.409Z,1005.714339
2023-01-19T15:25:16.476Z,1005.795858
2023-01-19T15:30:16.440Z,1005.783841
2023-01-19T15:35:16.425Z,1005.752170
2023-01-19T15:40:16.393Z,1005.758874
2023-01-19T15:45:16.371Z,1005.743222
2023-01-19T15:50:16.356Z,1005.789717
2023-01-19T15:55:16.602Z,1005.809328
2023-01-19T16:00:16.474Z,1005.795676
2023-01-19T16:05:16.577Z,1005.781932
2023-01-19T16:10:16.404Z,1005.832589
2023-01-19T16:15:19.218Z,1005.891781
2023-01-19T16:20:18.940Z,1005.880635
2023-01-19T16:25:18.860Z,1005.904631
2023-01-19T16:30:18.925Z,1005.972531
2023-01-19T16:35:19.269Z,1005.966383
2023-01-19T16:40:19.142Z,1005.938995
2023-01-19T16:45:18.962Z,1005.917555
2023-01-19T16:50:18.827Z,1005.918450
2023-01-19T16:55:18.885Z,1005.891924
2023-01-19T17:00:19.124Z,1005.843384
2023-01-19T17:05:18.889Z,1005.751059
2023-01-19T17:10:18.870Z,1005.639353
2023-01-19T17:15:19.085Z,1005.590459
2023-01-19T17:20:19.182Z,1005.663415
2023-01-19T17:25:18.805Z,1005.723956
2023-01-19T17:30:18.999Z,1005.857830
2023-01-19T17:35:19.078Z,1005.976393
2023-01-19T17:40:19.123Z,1006.016248
2023-01-19T17:45:18.901Z,1006.067090
2023-01-19T17:50:18.875Z,1006.160618
2023-01-19T17:55:18.794Z,1006.122748
2023-01-19T18:00:19.010Z,1006.136967
2023-01-19T18:05:18.880Z,1006.254048
2023-01-19T18:10:18.842Z,1006.361404
2023-01-19T18:15:19.096Z,1006.414179
2023-01-19T18:20:18.792Z,1006.443347
2023-01-19T18:25:18.763Z,1006.538651
2023-01-19T18:30:18.964Z,1006.589465
2023-01-19T18:35:18.917Z,1006.573597
2023-01-19T18:40:18.831Z,1006.549977
2023-01-19T18:45:19.036Z,1006.549965
2023-01-19T18:50:18.731Z,1006.504906
2023-01-19T18:55:19.021Z,1006.526721
2023-01-19T19:00:18.922Z,1006.542055
2023-01-19T19:05:18.777Z,1006.519865
2023-01-19T19:10:18.793Z,1006.466339
2023-01-19T19:15:16.475Z,1006.421473
2023-01-19T19:20:16.546Z,1006.447055
2023-01-19T19:25:16.315Z,1006.507596
2023-01-19T19:30:16.333Z,1006.537855
2023-01-19T19:35:16.577Z,1006.563074
2023-01-19T19:40:16.302Z,1006.614092
2023-01-19T19:45:16.344Z,1006.805669
2023-01-19T19:50:16.391Z,1006.902830
2023-01-19T19:55:16.598Z,1006.970565
2023-01-19T20:00:16.222Z,1007.036534
2023-01-19T20:05:16.274Z,1007.055287
2023-01-19T20:10:16.454Z,1007.111322
2023-01-19T20:15:16.468Z,1007.149331
2023-01-19T20:20:16.546Z,1007.185811
2023-01-19T20:25:16.627Z,1007.259959
2023-01-19T20:30:16.281Z,1007.318513
2023-01-19T20:35:16.431Z,1007.394182
2023-01-19T20:40:16.558Z,1007.457955
2023-01-19T20:45:16.383Z,1007.517964
2023-01-19T20:50:16.311Z,1007.624282
2023-01-19T20:55:16.288Z,1007.696536
2023-01-19T21:00:16.301Z,1007.766454
2023-01-19T21:05:16.572Z,1007.843033
2023-01-19T21:10:16.482Z,1007.854731
2023-01-19T21:15:16.435Z,1007.889144
2023-01-19T21:20:16.615Z,1007.909492
2023-01-19T21:25:16.454Z,1007.942645
2023-01-19T21:30:16.685Z,1007.991275
2023-01-19T21:35:16.463Z,1008.049115
2023-01-19T21:40:16.262Z,1008.155600
2023-01-19T21:45:16.209Z,1008.221906
2023-01-19T21:50:16.743Z,1008.244605
2023-01-19T21:55:16.485Z,1008.257358
2023-01-19T22:00:16.420Z,1008.362621
2023-01-19T22:05:16.325Z,1008.330713
2023-01-19T22:10:16.601Z,1008.375958
2023-01-19T22:15:16.516Z,1008.393438
2023-01-19T22:20:16.560Z,1008.418242
2023-01-19T22:25:16.302Z,1008.457621
2023-01-19T22:30:16.349Z,1008.515137
2023-01-19T22:35:16.361Z,1008.524276
2023-01-19T22:40:16.420Z,1008.524619
2023-01-19T22:45:16.411Z,1008.517235
2023-01-19T22:50:16.289Z,1008.520831
2023-01-19T22:55:16.368Z,1008.462173
2023-01-19T23:00:16.225Z,1008.416501
2023-01-19T23:05:16.775Z,1008.377582
2023-01-19T23:10:16.203Z,1008.387672
2023-01-19T23:15:16.510Z,1008.363167
2023-01-19T23:20:16.299Z,1008.373258
2023-01-19T23:25:16.341Z,1008.439564
2023-01-19T23:30:16.331Z,1008.478468
2023-01-19T23:35:16.232Z,1008.524427
2023-01-19T23:40:16.261Z,1008.561192
2023-01-19T23:45:16.187Z,1008.640867
2023-01-19T23:50:16.155Z,1008.700331
2023-01-19T23:55:16.449Z,1008.674219
